Current Weather

St Johns Industrial Air Park

St Johns, Arizona (KSJN)

Report from: Thursday, November 10, 2022 12:54 PM MST
Current time: Sunday, December 4, 2022 5:44 AM MST

Nearby weather
Weather history
Weather forecast

Temperature34.4°C (93.9°F)
Heat index31.8°C (89.2°F)
Dew point-3.3°C (26.1°F)
Winds 6 kts (3.1 m/s, 6.9 mph) Northwest (310°)
Visibility10 mi. (16.1 km)
Clouds Sky clear
Altimeter30.15 in.Hg (1021 mB)
Relative humidity9 %
Density altitude2,029 ft. (619 m)
Sea-level pressure100.9 kPa (1009 mB, 29.80 in.Hg)
Remarks Fully automated report
Automated weather observing station with precipitation discriminator
Flight conditions Visual Meteorological Conditions
Raw dataKSJN 101954Z AUTO 31006KT 10SM CLR 34/M03 A3015 RMK AO2 SLP093 T03441033
An error has occurred. This application may no longer respond until reloaded. Reload 🗙